createdAt,value
2022-12-03T00:03:22.326Z,37.83
2022-12-03T00:08:26.312Z,41.75
2022-12-03T00:13:29.914Z,40.88
2022-12-03T00:18:34.771Z,38.80
2022-12-03T00:23:42.116Z,40.65
2022-12-03T00:28:46.077Z,39.97
2022-12-03T00:33:52.061Z,39.63
2022-12-03T00:38:55.576Z,38.90
2022-12-03T00:43:59.069Z,39.83
2022-12-03T00:49:03.983Z,40.15
2022-12-03T00:54:07.506Z,37.15
2022-12-03T00:59:11.034Z,40.22
2022-12-03T01:04:17.259Z,43.40
2022-12-03T01:09:20.868Z,42.95
2022-12-03T01:14:24.610Z,48.10
2022-12-03T01:19:29.524Z,46.97
2022-12-03T01:24:33.123Z,46.47
2022-12-03T01:29:36.651Z,39.60
2022-12-03T01:34:41.491Z,48.75
2022-12-03T01:39:45.183Z,43.15
2022-12-03T01:44:57.816Z,46.80
2022-12-03T01:50:07.729Z,40.67
2022-12-03T01:55:16.029Z,46.58
2022-12-03T02:00:22.364Z,44.22
2022-12-03T02:05:29.178Z,42.90
2022-12-03T02:10:36.062Z,46.55
2022-12-03T02:15:41.093Z,53.15
2022-12-03T02:20:54.686Z,45.22
2022-12-03T02:25:59.646Z,40.67
2022-12-03T02:31:05.236Z,44.13
2022-12-03T02:36:09.502Z,43.30
2022-12-03T02:41:38.030Z,47.13
2022-12-03T02:46:41.811Z,43.63
2022-12-03T02:51:46.143Z,44.38
2022-12-03T02:56:51.321Z,49.47
2022-12-03T03:01:54.934Z,44.85
2022-12-03T03:06:58.665Z,41.85
2022-12-03T03:12:03.616Z,45.58
2022-12-03T03:17:07.728Z,43.58
2022-12-03T03:22:11.565Z,43.20
2022-12-03T03:27:16.415Z,40.75
2022-12-03T03:32:20.052Z,37.55
2022-12-03T03:37:24.928Z,31.88
2022-12-03T03:42:30.026Z,34.97
2022-12-03T03:47:33.904Z,35.75
2022-12-03T03:52:38.386Z,36.53
2022-12-03T03:57:43.321Z,32.63
2022-12-03T04:02:46.967Z,35.38
2022-12-03T04:07:50.471Z,37.85
2022-12-03T04:12:58.543Z,37.28
2022-12-03T04:18:28.257Z,31.85
2022-12-03T04:23:31.789Z,36.45
2022-12-03T04:28:51.604Z,42.42
2022-12-03T04:34:12.716Z,38.17
2022-12-03T04:44:36.789Z,40.42
2022-12-03T04:49:42.196Z,42.80
2022-12-03T04:54:46.440Z,43.58
2022-12-03T04:59:51.387Z,41.45
2022-12-03T05:04:55.158Z,40.22
2022-12-03T05:09:59.219Z,44.08
2022-12-03T05:15:08.096Z,47.80
2022-12-03T05:20:30.413Z,40.83
2022-12-03T05:25:33.955Z,39.42
2022-12-03T05:30:38.971Z,42.40
2022-12-03T05:35:42.640Z,43.83
2022-12-03T05:40:46.264Z,49.38
2022-12-03T05:45:51.182Z,44.65
2022-12-03T05:50:54.713Z,40.08
2022-12-03T05:55:58.303Z,45.55
2022-12-03T06:01:04.555Z,44.45
2022-12-03T06:06:08.236Z,38.00
2022-12-03T06:11:11.877Z,41.92
2022-12-03T06:16:16.994Z,48.70
2022-12-03T06:21:20.523Z,43.22
2022-12-03T06:26:24.050Z,38.88
2022-12-03T06:31:29.025Z,47.25
2022-12-03T06:36:32.601Z,47.30
2022-12-03T06:41:36.063Z,45.08
2022-12-03T06:46:41.073Z,45.50
2022-12-03T06:51:44.703Z,42.15
2022-12-03T06:56:48.319Z,44.42
2022-12-03T07:01:53.309Z,40.03
2022-12-03T07:06:56.865Z,40.00
2022-12-03T07:12:00.349Z,43.25
2022-12-03T07:17:05.374Z,45.45
2022-12-03T07:22:08.915Z,43.45
2022-12-03T07:27:12.504Z,46.50
2022-12-03T07:32:17.413Z,45.28
2022-12-03T07:37:23.262Z,48.40
2022-12-03T07:42:27.330Z,60.80
2022-12-03T07:47:32.674Z,55.85
2022-12-03T07:52:36.192Z,69.82
2022-12-03T07:57:39.736Z,54.60
2022-12-03T08:02:44.745Z,56.58
2022-12-03T08:07:48.302Z,54.42
2022-12-03T08:12:51.839Z,57.47
2022-12-03T08:17:59.880Z,55.92
2022-12-03T08:23:12.033Z,59.70
2022-12-03T08:28:19.134Z,68.75
2022-12-03T08:33:28.671Z,65.97
2022-12-03T08:38:32.239Z,62.67
2022-12-03T08:43:42.004Z,63.00
2022-12-03T08:48:49.277Z,59.72
2022-12-03T08:54:01.911Z,54.30
2022-12-03T08:59:24.031Z,53.92
2022-12-03T09:04:32.084Z,54.53
2022-12-03T09:09:35.743Z,51.30
2022-12-03T09:14:39.858Z,48.15
2022-12-03T09:19:46.420Z,52.13
2022-12-03T09:24:50.095Z,51.28
2022-12-03T09:29:53.659Z,52.63
2022-12-03T09:34:58.687Z,51.80
2022-12-03T09:40:02.270Z,59.75
2022-12-03T09:45:11.099Z,56.45
2022-12-03T09:50:20.204Z,54.80
2022-12-03T09:55:26.116Z,50.08
2022-12-03T10:00:31.430Z,48.03
2022-12-03T10:05:36.420Z,53.13
2022-12-03T10:10:41.699Z,51.30
2022-12-03T10:15:45.343Z,54.50
2022-12-03T10:20:52.058Z,52.45
2022-12-03T10:25:57.897Z,55.08
2022-12-03T10:31:03.490Z,55.45
2022-12-03T10:36:24.441Z,57.53
2022-12-03T10:41:29.733Z,45.05
2022-12-03T10:46:33.564Z,51.42
2022-12-03T10:51:39.597Z,59.42
2022-12-03T10:56:43.464Z,57.45
2022-12-03T11:01:47.238Z,53.90
2022-12-03T11:06:52.484Z,56.80
2022-12-03T11:11:56.248Z,48.78
2022-12-03T11:17:10.073Z,53.30
2022-12-03T11:22:45.816Z,47.97
2022-12-03T11:28:35.270Z,53.80
2022-12-03T11:33:40.468Z,46.55
2022-12-03T11:38:53.698Z,44.65
2022-12-03T11:44:27.226Z,44.42
2022-12-03T11:49:40.238Z,51.47
2022-12-03T11:54:46.868Z,40.97
2022-12-03T12:00:03.935Z,46.05
2022-12-03T12:05:24.784Z,46.40
2022-12-03T12:10:50.103Z,47.67
2022-12-03T12:15:54.294Z,49.90
2022-12-03T12:21:47.668Z,60.92
2022-12-03T12:26:53.309Z,63.97
2022-12-03T12:32:02.896Z,59.05
2022-12-03T12:37:11.177Z,62.08
2022-12-03T12:42:30.372Z,49.60
2022-12-03T12:47:35.613Z,61.53
2022-12-03T12:52:48.619Z,73.18
2022-12-03T12:57:53.644Z,66.93
2022-12-03T13:03:01.088Z,58.45
2022-12-03T13:08:10.450Z,62.05
2022-12-03T13:13:24.809Z,64.65
2022-12-03T13:18:33.573Z,66.40
2022-12-03T13:23:38.760Z,72.53
2022-12-03T13:28:43.764Z,63.33
2022-12-03T13:33:47.535Z,67.40
2022-12-03T13:38:51.225Z,55.38
2022-12-03T13:43:56.246Z,64.97
2022-12-03T13:49:01.940Z,68.32
2022-12-03T13:54:14.589Z,67.40
2022-12-03T13:59:26.014Z,73.50
2022-12-03T14:04:29.974Z,63.58
2022-12-03T14:09:33.659Z,57.17
2022-12-03T14:14:38.571Z,63.05
2022-12-03T14:19:42.124Z,60.45
2022-12-03T14:24:46.330Z,63.08
2022-12-03T14:29:52.400Z,57.40
2022-12-03T14:34:56.716Z,55.22
2022-12-03T14:40:00.252Z,55.70
2022-12-03T14:45:06.662Z,58.03
2022-12-03T14:50:14.206Z,66.90
2022-12-03T14:55:18.132Z,68.45
2022-12-03T15:00:23.844Z,63.55
2022-12-03T15:05:28.956Z,68.00
2022-12-03T15:10:32.758Z,61.10
2022-12-03T15:15:37.649Z,57.53
2022-12-03T15:20:41.302Z,62.33
2022-12-03T15:25:45.234Z,66.45
2022-12-03T15:30:50.242Z,58.83
2022-12-03T15:35:53.918Z,69.55
2022-12-03T15:40:58.104Z,79.20
2022-12-03T15:46:03.071Z,77.07
2022-12-03T15:51:07.135Z,70.00
2022-12-03T15:56:11.971Z,65.72
2022-12-03T16:01:18.558Z,69.10
2022-12-03T16:06:22.187Z,71.18
2022-12-03T16:11:25.840Z,61.83
2022-12-03T16:16:30.740Z,68.55
2022-12-03T16:21:35.305Z,70.72
2022-12-03T16:26:38.981Z,72.05
2022-12-03T16:31:44.361Z,68.35
2022-12-03T16:36:48.100Z,65.43
2022-12-03T16:41:51.742Z,67.53
2022-12-03T16:46:56.715Z,64.57
2022-12-03T16:52:00.285Z,68.57
2022-12-03T16:57:04.804Z,71.25
2022-12-03T17:02:10.228Z,73.82
2022-12-03T17:07:13.989Z,65.18
2022-12-03T17:12:17.572Z,71.47
2022-12-03T17:17:22.502Z,69.20
2022-12-03T17:22:26.003Z,67.80
2022-12-03T17:27:29.623Z,73.18
2022-12-03T17:32:34.547Z,73.18
2022-12-03T17:37:38.434Z,71.70
2022-12-03T17:42:42.173Z,77.22
2022-12-03T17:47:47.065Z,75.78
2022-12-03T17:52:50.588Z,87.47
2022-12-03T17:57:54.171Z,84.53
2022-12-03T18:02:59.147Z,88.80
2022-12-03T18:08:03.139Z,92.68
2022-12-03T18:13:06.782Z,98.47
2022-12-03T18:18:11.819Z,86.45
2022-12-03T18:23:15.379Z,92.28
2022-12-03T18:28:19.060Z,86.20
2022-12-03T18:33:24.152Z,86.32
2022-12-03T18:38:30.732Z,81.68
2022-12-03T18:43:34.489Z,78.90
2022-12-03T18:48:39.719Z,79.22
2022-12-03T18:53:44.050Z,83.70
2022-12-03T18:58:48.233Z,87.85
2022-12-03T19:03:54.963Z,89.15
2022-12-03T19:08:59.231Z,84.82
2022-12-03T19:14:04.034Z,80.90
2022-12-03T19:19:09.758Z,81.50
2022-12-03T19:24:28.792Z,76.72
2022-12-03T19:29:32.425Z,72.53
2022-12-03T19:34:38.135Z,74.28
2022-12-03T19:39:43.123Z,76.47
2022-12-03T19:44:46.819Z,73.78
2022-12-03T19:49:54.043Z,78.65
2022-12-03T19:54:57.886Z,76.82
2022-12-03T20:00:01.400Z,225.68
2022-12-03T20:05:06.801Z,79.85
2022-12-03T20:10:11.234Z,79.03
2022-12-03T20:15:15.265Z,72.47
2022-12-03T20:20:20.968Z,76.93
2022-12-03T20:25:24.983Z,72.90
2022-12-03T20:30:28.616Z,79.03
2022-12-03T20:35:34.388Z,74.00
2022-12-03T20:40:39.131Z,69.43
2022-12-03T20:45:42.885Z,76.95
2022-12-03T20:50:47.771Z,73.28
2022-12-03T20:55:56.452Z,73.20
2022-12-03T21:01:15.181Z,74.80
2022-12-03T21:06:22.277Z,74.28
2022-12-03T21:11:29.950Z,80.43
2022-12-03T21:17:06.753Z,75.70
2022-12-03T21:22:02.286Z,83.00
2022-12-03T21:27:05.946Z,78.22
2022-12-03T21:32:09.463Z,86.45
2022-12-03T21:37:14.345Z,81.65
2022-12-03T21:42:34.252Z,84.88
2022-12-03T21:47:40.014Z,81.43
2022-12-03T21:52:45.120Z,84.65
2022-12-03T21:57:48.655Z,83.55
2022-12-03T22:02:52.510Z,87.07
2022-12-03T22:07:57.827Z,76.50
2022-12-03T22:13:01.547Z,86.47
2022-12-03T22:18:05.395Z,84.80
2022-12-03T22:23:10.409Z,85.20
2022-12-03T22:28:15.338Z,84.50
2022-12-03T22:33:18.854Z,83.55
2022-12-03T22:38:23.927Z,79.13
2022-12-03T22:43:27.816Z,94.63
2022-12-03T22:48:31.546Z,78.32
2022-12-03T22:53:36.386Z,86.13
2022-12-03T22:58:41.139Z,90.40
2022-12-03T23:03:44.744Z,88.10
2022-12-03T23:08:49.958Z,85.22
2022-12-03T23:13:53.771Z,81.88
2022-12-03T23:18:59.573Z,93.32
2022-12-03T23:24:05.857Z,87.50
2022-12-03T23:29:09.420Z,92.18
2022-12-03T23:34:12.947Z,89.03
2022-12-03T23:39:18.020Z,85.53
2022-12-03T23:44:21.554Z,88.05
2022-12-03T23:49:25.108Z,90.95
2022-12-03T23:54:29.942Z,92.65
2022-12-03T23:59:33.394Z,101.97
